Olympic Dam, South Australia

9:55 PM CST on August 31, 2014 (GMT +0930)
Olympic Dam | Change Station
CLOSE
Current Station
Airport
Location: Olympic Dam Airport,
Elevation: 341 ft
Nearby Weather Stations

Elev 341 ft 30.49 °S, 136.88 °E | Updated 25 minutes ago

Clear
Clear
68 °F
Feels Like 68 °F
N
12
Wind Variable Wind from NNE

Today
High -- | Low -- °F
--% Chance of Precip.
Yesterday
High -- | Low -- °F
Precip. -- in
6:39 AM 6:06 PM
Waxing Crescent, 30% visible
Pressure 29.86 in
Visibility 6.2 miles
Clouds
Dew Point 27 °F
Humidity 21%
Rainfall 0.00 in
Snow Depth Not available.
UV Not available.
Pollen Not available.
Air Quality Not available.
Flu Activity Not available.
METAR YOLD 311200Z AUTO 02010KT 9999 // NCD 20/M03 Q1011

More Conditions Fewer Conditions

Pressure 29.86 in
Visibility 6.2 miles
Clouds
Dew Point 27 °F
Humidity 21%
Rainfall 0.00 in
Snow Depth Not available.
UV Not available.
Pollen Not available.
Air Quality Not available.
Flu Activity Not available.
METAR YOLD 311200Z AUTO 02010KT 9999 // NCD 20/M03 Q1011

More Conditions Fewer Conditions

10-Day Weather Forecast

Almanac

Astronomy

Aug. 31, 2014 Rise Set
Actual Time 6:39 AM CST 6:06 PM CST
Civil Twilight 6:15 AM CST 6:30 PM CST
Nautical Twilight 5:47 AM CST 6:58 PM CST
Astronomical Twilight 5:19 AM CST 7:26 PM CST
Moon 9:41 AM CST 11:11 PM CST
Length of Visible Light 12h 14m
Length of Day
11h 26m
Tomorrow will be 1m 44s longer.
Waxing Crescent, 30% of the Moon is Illuminated
Today
Waxing Crescent
Sep 2
First Quarter
Sep 8
Full
Sep 15
Last Quarter
Sep 24
New

Yesterday's Extremes

Country Highs Country Lows

Community

WunderPhotos

Upload Photos

1,748,856 photos uploaded!

Nearby

Snow Depth

Not available.

Earthquake Activity

City Distance Mag. Time & Date
No recent earthquake activity has been reported nearby.
Minimum magnitude displayed is 2.5.

Coastal Water Temperatures

Place Temperature
No Stations Reporting

Nearby Weather Stations